Accueil
METAR-TAF:

METAR-TAF

Aéroports :

Lincolnton-Lincoln County Regional Airport

Lincolnton, Caroline du Nord, États-Unis

latitude: 35-28-59N, longitude: 081-09-41W, altitude: 267 m

Observation

Le bulletin a été fait il y a 22 minutes, à 06:35 UTC
Vent 4 kt de ouest
Température 7°C
Humidité 81%
Pression 1020 hPa
Visibilité: 16.1 km
Ciel clair

METAR: KIPJ 200635Z AUTO 28004KT 10SM CLR 07/04 A3012 RMK AO2 T00700035

Heure: 01:57 (06:57 UTC)


TAF: absent

Observations et prévisions météorologiques de plus de 4000 aéroports (messages METAR et TAF).

Les stations disponibles sont représentées par des disques jaunes et rouges sur la carte.

Passer la souris dessus pour voir le nom de la station.

Cliquer dessus pour voir les observations et prévisions météorologiques.

Pour changer de carte: cliquez sur les boutons verts avec une croix noire pour zoomer, sur le bouton vert avec un tiret pour effectuer un zoom arrière, ou sur les flèches vertes pour les cartes adjacentes.


METAR-TAF: